Time;durP1;ratioP1;P1;durP2;ratioP2;P2;SDS_P1;SDS_P2;PMS_P1;PMS_P2;Temp;Humidity;BMP_temperature;BMP_pressure;BME280_temperature;BME280_humidity;BME280_pressure;Samples;Min_cycle;Max_cycle;Signal;HPM_P1;HPM_P2
2022/05/30 00:02:50;;;;;;;4.13;1.67;;;;;;;10.23;59.46;97220.88;10038464;29;20397;-77
2022/05/30 00:08:12;;;;;;;2.33;1.17;;;;;;;10.26;59.77;97208.53;10038467;29;20080;-76
2022/05/30 00:13:34;;;;;;;2.63;1.45;;;;;;;10.26;59.88;97208.53;10051222;29;20446;-76
2022/05/30 00:18:57;;;;;;;2.35;1.23;;;;;;;10.29;59.92;97202.47;10051099;29;20057;-77
2022/05/30 00:24:19;;;;;;;3.38;1.27;;;;;;;10.29;60.04;97202.47;10064264;29;20133;-76
2022/05/30 00:29:40;;;;;;;2.63;1.30;;;;;;;10.27;60.06;97201.63;10051870;29;20088;-76
2022/05/30 00:35:05;;;;;;;2.28;1.08;;;;;;;10.17;60.14;97195.41;10050439;29;20405;-76
2022/05/30 00:40:26;;;;;;;2.22;0.82;;;;;;;10.09;60.29;97201.22;10049952;29;20054;-76
2022/05/30 00:45:52;;;;;;;2.38;1.23;;;;;;;10.09;60.21;97197.72;10062906;29;20060;-77
2022/05/30 00:51:16;;;;;;;2.47;0.90;;;;;;;10.07;60.45;97198.31;10044057;29;20050;-76
2022/05/30 00:56:40;;;;;;;2.40;1.25;;;;;;;10.05;60.39;97198.19;10056660;29;20080;-77
2022/05/30 01:02:03;;;;;;;2.35;0.82;;;;;;;10.04;60.37;97200.25;10056700;29;20060;-76
2022/05/30 01:07:24;;;;;;;2.40;0.77;;;;;;;10.04;60.52;97200.25;10044446;29;20064;-77
2022/05/30 01:12:52;;;;;;;2.03;0.85;;;;;;;9.99;60.39;97198.53;10058061;29;20058;-77
2022/05/30 01:18:33;;;;;;;2.10;1.00;;;;;;;9.90;60.62;97207.03;10069874;29;20053;-76
2022/05/30 01:24:14;;;;;;;2.20;0.70;;;;;;;9.89;60.64;97211.88;10069422;29;20065;-76
2022/05/30 01:30:24;;;;;;;1.67;0.75;;;;;;;9.91;60.75;97191.75;10063829;29;20144;-76
2022/05/30 01:35:47;;;;;;;3.30;0.70;;;;;;;9.86;60.82;97196.38;10043590;29;20068;-76
2022/05/30 01:41:09;;;;;;;1.77;0.85;;;;;;;9.88;60.90;97185.31;10056031;29;20064;-76
2022/05/30 01:46:31;;;;;;;2.38;1.02;;;;;;;9.90;60.72;97170.78;10044325;29;20053;-76
2022/05/30 01:51:55;;;;;;;2.10;0.85;;;;;;;9.93;60.96;97175.88;10030468;29;20061;-77
2022/05/30 01:57:46;;;;;;;2.25;0.90;;;;;;;9.99;61.06;97186.66;10068870;29;20057;-76
2022/05/30 02:03:26;;;;;;;3.30;0.80;;;;;;;10.00;61.04;97183.28;10067645;29;20061;-76
2022/05/30 02:08:48;;;;;;;2.17;0.88;;;;;;;10.03;61.24;97182.06;10067934;29;20117;-76
2022/05/30 02:14:41;;;;;;;2.47;1.05;;;;;;;10.08;61.43;97185.81;10057671;29;20438;-77
2022/05/30 02:20:06;;;;;;;3.72;1.00;;;;;;;10.11;61.03;97186.66;10055479;29;20205;-76
2022/05/30 02:25:27;;;;;;;3.13;0.93;;;;;;;10.12;61.44;97179.75;10041805;29;20057;-76
2022/05/30 02:30:49;;;;;;;3.00;1.10;;;;;;;10.18;60.97;97189.22;10054452;29;20053;-76
2022/05/30 02:41:50;;;;;;;3.05;0.80;;;;;;;10.11;61.50;97192.25;10066337;29;20080;-76
2022/05/30 02:47:13;;;;;;;1.80;0.88;;;;;;;10.00;61.58;97197.22;10042447;29;20057;-76
2022/05/30 02:52:39;;;;;;;2.00;0.80;;;;;;;9.86;61.59;97193.56;10054229;29;20053;-76
2022/05/30 02:58:08;;;;;;;2.20;1.08;;;;;;;9.80;62.16;97201.56;10066230;29;20053;-76
2022/05/30 03:03:31;;;;;;;2.15;0.93;;;;;;;9.77;61.98;97202.78;10041235;29;20061;-76
2022/05/30 03:08:52;;;;;;;2.60;1.05;;;;;;;9.70;62.22;97200.94;10027079;29;20466;-77
2022/05/30 03:14:49;;;;;;;2.25;0.98;;;;;;;9.63;62.50;97207.44;10047612;29;20058;-77
2022/05/30 03:20:11;;;;;;;5.05;1.10;;;;;;;9.62;62.25;97203.22;10052415;29;20488;-77
2022/05/30 03:25:32;;;;;;;1.98;0.98;;;;;;;9.57;62.81;97204.31;10039796;29;20151;-76
2022/05/30 03:30:57;;;;;;;;;;;;;;;9.58;62.87;97211.31;10052354;29;20068;-76
2022/05/30 03:36:26;;;;;;;2.70;1.10;;;;;;;9.57;62.76;97209.88;10051500;29;19952;-77
2022/05/30 03:41:53;;;;;;;3.35;1.00;;;;;;;9.55;62.81;97216.03;10064054;29;20061;-76
2022/05/30 03:47:25;;;;;;;3.03;1.10;;;;;;;9.61;62.91;97224.03;10053008;29;20065;-76
2022/05/30 03:52:50;;;;;;;5.50;1.07;;;;;;;9.77;63.04;97219.50;10051773;29;20136;-77
2022/05/30 03:58:13;;;;;;;4.45;0.88;;;;;;;10.02;62.66;97230.06;10040356;29;20377;-76
2022/05/30 04:03:35;;;;;;;3.03;1.10;;;;;;;10.40;62.82;97231.69;10039929;29;20065;-76
2022/05/30 04:08:57;;;;;;;3.88;1.63;;;;;;;10.89;62.37;97235.28;10052009;29;20081;-77
2022/05/30 04:14:23;;;;;;;6.70;1.20;;;;;;;11.16;61.87;97231.94;10066297;29;20049;-77
2022/05/30 04:19:48;;;;;;;4.43;1.30;;;;;;;11.28;61.39;97231.91;10053320;29;20480;-77
2022/05/30 04:25:09;;;;;;;3.40;1.40;;;;;;;11.24;61.39;97233.75;10059755;29;20060;-77
2022/05/30 04:30:41;;;;;;;4.40;1.20;;;;;;;11.26;61.05;97239.44;10059707;29;20498;-77
2022/05/30 04:36:03;;;;;;;3.03;1.02;;;;;;;11.31;60.84;97224.38;10045273;29;20467;-76
2022/05/30 04:41:26;;;;;;;4.90;1.27;;;;;;;11.37;60.88;97227.50;10059181;29;20062;-76
2022/05/30 04:47:06;;;;;;;3.30;1.60;;;;;;;11.46;60.79;97226.59;10058968;29;20125;-76
2022/05/30 04:52:31;;;;;;;3.22;1.05;;;;;;;11.65;60.58;97233.94;10072467;29;20057;-76
2022/05/30 04:58:03;;;;;;;4.10;1.10;;;;;;;11.86;60.55;97227.41;10062030;29;20049;-76
2022/05/30 05:03:45;;;;;;;1.65;1.05;;;;;;;12.14;59.96;97231.72;10056257;29;20400;-76
2022/05/30 05:09:07;;;;;;;2.92;1.58;;;;;;;12.47;59.64;97236.97;10070932;29;20053;-77
2022/05/30 05:14:28;;;;;;;3.72;1.48;;;;;;;12.82;59.27;97233.84;10078207;29;20049;-77
2022/05/30 05:20:09;;;;;;;3.67;1.55;;;;;;;13.24;58.62;97242.94;10098908;29;20045;-81
2022/05/30 05:32:53;;;;;;;4.22;1.55;;;;;;;14.31;56.00;97254.97;10797983;24;20363;-80
2022/05/30 05:38:18;;;;;;;5.63;1.55;;;;;;;14.75;55.72;97261.13;10092318;29;20069;-78
2022/05/30 05:43:55;;;;;;;3.67;1.40;;;;;;;15.48;54.84;97250.13;10065097;29;20057;-79
2022/05/30 05:49:19;;;;;;;3.08;1.30;;;;;;;16.27;53.85;97258.16;10056006;29;20480;-79
2022/05/30 05:54:52;;;;;;;3.67;1.80;;;;;;;17.36;51.53;97266.22;10083055;29;20077;-79
2022/05/30 06:00:41;;;;;;;2.65;1.60;;;;;;;19.24;48.75;97273.28;10075174;29;20046;-76
2022/05/30 06:06:02;;;;;;;2.78;1.40;;;;;;;25.35;41.47;97264.91;10064025;29;20064;-81
2022/05/30 06:11:43;;;;;;;6.90;1.40;;;;;;;33.40;33.13;97274.50;10031110;29;20050;-81
2022/05/30 06:17:03;;;;;;;4.68;1.85;;;;;;;37.00;27.94;97281.22;10036864;29;20378;-82
2022/05/30 06:22:26;;;;;;;4.65;1.00;;;;;;;40.07;22.98;97282.25;10037905;29;20053;-80
2022/05/30 06:27:50;;;;;;;7.93;1.52;;;;;;;40.60;18.33;97282.03;10037548;29;20088;-79
2022/05/30 06:33:28;;;;;;;2.92;0.80;;;;;;;41.96;16.60;97284.47;10040984;29;20061;-80
2022/05/30 06:38:56;;;;;;;1.42;0.57;;;;;;;44.16;14.12;97289.63;10038005;29;20190;-82
2022/05/30 06:44:24;;;;;;;2.92;0.70;;;;;;;45.00;11.87;97292.78;10024321;29;20053;-82
2022/05/30 06:50:05;;;;;;;2.42;0.80;;;;;;;44.61;11.18;97295.75;10040593;29;20113;-82
2022/05/30 06:55:26;;;;;;;6.30;0.93;;;;;;;45.94;9.34;97298.44;10034639;29;20077;-79
2022/05/30 07:00:47;;;;;;;2.28;0.75;;;;;;;47.31;8.68;97296.38;10048320;29;20054;-82
2022/05/30 07:06:24;;;;;;;4.85;0.70;;;;;;;49.56;7.77;97294.72;9999846;29;20080;-83
2022/05/30 07:12:06;;;;;;;1.23;0.40;;;;;;;49.73;5.59;97287.91;10021275;29;20061;-83
2022/05/30 07:17:31;;;;;;;1.58;0.30;;;;;;;41.14;7.93;97289.69;9996491;29;20065;-83
2022/05/30 07:22:52;;;;;;;1.83;0.50;;;;;;;41.63;8.94;97277.81;9971357;29;20069;-83
2022/05/30 07:28:32;;;;;;;5.13;1.00;;;;;;;34.11;11.34;97278.69;10038035;29;20106;-81
2022/05/30 07:34:12;;;;;;;2.92;0.57;;;;;;;28.34;13.97;97283.09;10058362;29;20065;-80
2022/05/30 07:39:52;;;;;;;1.80;0.60;;;;;;;24.79;17.40;97288.97;10044301;29;20057;-80
2022/05/30 07:45:37;;;;;;;3.08;0.90;;;;;;;22.71;20.10;97286.44;10048154;29;20404;-80
2022/05/30 07:51:03;;;;;;;5.07;0.90;;;;;;;21.63;21.83;97276.34;10045653;29;20101;-80
2022/05/30 07:56:50;;;;;;;6.15;1.50;;;;;;;24.02;25.29;97286.38;10056212;29;20054;-80
2022/05/30 08:02:12;;;;;;;6.10;1.02;;;;;;;31.87;16.70;97293.06;10044574;29;20113;-81
2022/05/30 08:07:36;;;;;;;4.20;1.00;;;;;;;32.92;18.30;97294.66;10045188;29;20061;-82
2022/05/30 08:13:18;;;;;;;4.43;1.00;;;;;;;42.41;12.27;97299.81;10057526;29;20057;-82
2022/05/30 08:18:43;;;;;;;3.10;0.60;;;;;;;46.27;9.49;97307.53;10023372;29;20058;-83
2022/05/30 08:24:07;;;;;;;3.08;0.75;;;;;;;48.20;6.74;97307.63;10006905;29;20118;-82
2022/05/30 08:29:33;;;;;;;4.03;0.50;;;;;;;48.30;5.13;97317.84;9993575;29;20402;-81
2022/05/30 08:34:54;;;;;;;6.82;0.70;;;;;;;44.65;5.81;97303.56;9979133;29;20058;-82
2022/05/30 08:46:41;;;;;;;2.50;0.75;;;;;;;31.84;13.35;97297.44;10006289;29;20409;-81
2022/05/30 08:52:05;;;;;;;2.33;0.73;;;;;;;28.28;14.66;97292.50;10018904;29;20058;-80
2022/05/30 08:57:36;;;;;;;2.47;0.80;;;;;;;25.51;16.96;97301.38;10005843;29;20426;-80
2022/05/30 09:03:35;;;;;;;3.88;0.70;;;;;;;23.14;21.29;97304.75;10005785;29;20058;-80
2022/05/30 09:09:05;;;;;;;1.65;0.75;;;;;;;21.78;23.04;97294.31;9986005;29;20485;-80
2022/05/30 09:14:56;;;;;;;4.55;1.05;;;;;;;20.88;24.70;97303.31;10016416;29;20069;-80
2022/05/30 09:20:20;;;;;;;1.58;0.60;;;;;;;27.29;20.71;97308.25;10012796;29;20057;-81
2022/05/30 09:26:03;;;;;;;2.25;0.70;;;;;;;25.95;22.00;97301.41;10000194;29;20065;-81
2022/05/30 09:32:02;;;;;;;4.10;0.77;;;;;;;30.19;18.60;97307.22;10017569;29;20069;-81
2022/05/30 09:37:45;;;;;;;3.92;0.65;;;;;;;28.27;18.03;97296.06;10006441;29;20085;-80
2022/05/30 09:43:30;;;;;;;3.60;0.80;;;;;;;25.38;20.13;97309.91;10000489;29;20405;-80
2022/05/30 09:49:05;;;;;;;2.88;0.63;;;;;;;23.00;22.46;97299.63;9998732;29;20062;-81
2022/05/30 09:54:26;;;;;;;1.60;0.55;;;;;;;22.32;22.80;97297.31;9998241;29;20493;-81
2022/05/30 09:59:49;;;;;;;1.75;0.80;;;;;;;21.25;23.64;97302.63;10023561;29;20107;-81
2022/05/30 10:05:13;;;;;;;4.18;0.90;;;;;;;20.00;26.04;97307.03;9998676;29;20065;-81
2022/05/30 10:10:39;;;;;;;2.08;1.00;;;;;;;19.07;27.52;97299.69;10023405;29;20508;-82
2022/05/30 10:16:05;;;;;;;2.17;0.90;;;;;;;19.23;27.58;97305.09;10010177;29;20058;-82
2022/05/30 10:21:35;;;;;;;1.40;0.80;;;;;;;21.23;27.61;97302.59;10009797;29;20504;-81
2022/05/30 10:34:01;;;;;;;2.95;0.60;;;;;;;21.82;26.21;97309.31;9971424;29;20062;-82
2022/05/30 10:39:46;;;;;;;3.05;1.15;;;;;;;21.83;26.53;97305.06;9984257;29;20070;-85
2022/05/30 10:45:12;;;;;;;2.55;0.60;;;;;;;21.69;26.44;97301.97;9960276;29;20409;-85
2022/05/30 10:50:52;;;;;;;2.63;0.50;;;;;;;21.09;27.07;97297.34;9959574;29;20077;-83
2022/05/30 10:56:27;;;;;;;2.75;0.70;;;;;;;20.56;27.67;97310.47;9959796;29;20050;-82
2022/05/30 11:02:16;;;;;;;4.50;0.73;;;;;;;20.36;28.25;97309.97;9934390;29;20065;-78
2022/05/30 11:07:42;;;;;;;2.90;0.70;;;;;;;20.35;28.38;97304.97;9973014;29;20509;-76
2022/05/30 11:13:28;;;;;;;1.80;0.57;;;;;;;21.91;27.74;97299.53;9946048;29;20059;-77
2022/05/30 11:19:14;;;;;;;1.80;0.60;;;;;;;23.64;26.47;97304.59;9973145;29;20062;-80
2022/05/30 11:25:06;;;;;;;2.95;0.70;;;;;;;23.94;25.57;97307.00;9942817;29;20065;-76
2022/05/30 11:30:32;;;;;;;4.53;0.70;;;;;;;25.29;24.23;97299.19;9957006;29;20057;-83
2022/05/30 11:36:07;;;;;;;2.17;0.68;;;;;;;25.35;23.32;97288.47;9995362;29;20114;-83
2022/05/30 11:41:39;;;;;;;2.92;0.80;;;;;;;24.23;23.04;97287.97;10008042;29;20061;-83
2022/05/30 11:47:16;;;;;;;3.33;0.50;;;;;;;22.98;23.52;97276.84;10007347;29;20169;-86
2022/05/30 11:52:49;;;;;;;2.67;0.60;;;;;;;22.69;24.16;97280.75;10007140;29;20050;-86
2022/05/30 11:58:41;;;;;;;1.05;0.40;;;;;;;22.74;24.56;97274.41;10007043;29;20060;-86
2022/05/30 12:04:05;;;;;;;3.40;0.60;;;;;;;22.63;24.38;97286.34;10007349;29;20090;-85
2022/05/30 12:09:42;;;;;;;2.03;0.52;;;;;;;22.38;24.71;97285.28;10019644;29;20058;-84
2022/05/30 12:15:16;;;;;;;2.58;0.60;;;;;;;22.86;24.44;97279.53;10008000;29;20054;-83
2022/05/30 12:26:57;;;;;;;3.05;0.50;;;;;;;22.92;24.09;97281.75;9996308;29;20050;-83
2022/05/30 12:32:21;;;;;;;2.17;0.60;;;;;;;22.98;24.14;97278.97;10024311;29;20497;-83
2022/05/30 12:37:52;;;;;;;1.30;0.40;;;;;;;23.60;23.61;97281.03;10019297;29;20226;-83
2022/05/30 12:43:23;;;;;;;2.15;0.40;;;;;;;23.98;23.33;97286.34;10007654;29;20472;-82
2022/05/30 12:49:00;;;;;;;1.42;0.30;;;;;;;24.05;22.82;97284.28;10026337;29;20058;-83
2022/05/30 12:54:26;;;;;;;1.05;0.20;;;;;;;23.67;22.79;97285.41;10001824;29;20126;-83
2022/05/30 13:00:02;;;;;;;3.50;0.30;;;;;;;23.26;22.87;97275.69;10000595;29;20501;-80
2022/05/30 13:05:26;;;;;;;1.60;0.30;;;;;;;23.02;23.28;97279.72;10001016;29;20062;-82
2022/05/30 13:10:47;;;;;;;2.28;0.30;;;;;;;23.25;23.00;97288.50;10000782;29;20081;-86
2022/05/30 13:16:31;;;;;;;0.73;0.20;;;;;;;23.73;22.79;97281.84;9999994;29;20057;-85
2022/05/30 13:21:53;;;;;;;1.40;0.28;;;;;;;23.82;22.46;97284.06;10014221;29;20493;-90
2022/05/30 13:27:17;;;;;;;0.52;0.20;;;;;;;23.80;22.35;97289.06;9975837;29;20133;-91
2022/05/30 13:32:38;;;;;;;4.43;0.20;;;;;;;23.97;22.20;97293.47;9987553;29;20054;-91
2022/05/30 13:38:02;;;;;;;0.95;0.20;;;;;;;24.33;21.86;97280.91;10025101;29;20054;-91
2022/05/30 13:43:32;;;;;;;0.50;0.25;;;;;;;24.66;21.22;97288.22;10000259;29;20061;-90
2022/05/30 13:49:13;;;;;;;1.02;0.20;;;;;;;24.51;20.95;97300.97;10014711;29;20062;-90
2022/05/30 13:54:39;;;;;;;3.15;0.20;;;;;;;24.05;21.00;97293.53;9999014;29;20061;-89
2022/05/30 14:00:09;;;;;;;1.48;0.20;;;;;;;23.40;20.87;97287.25;10012158;29;20060;-89
2022/05/30 14:05:36;;;;;;;0.50;0.17;;;;;;;22.95;21.69;97305.97;10000674;29;20057;-90
2022/05/30 14:11:06;;;;;;;1.55;0.22;;;;;;;22.83;22.50;97303.66;10024831;29;20057;-91
2022/05/30 14:16:35;;;;;;;1.88;0.40;;;;;;;22.60;22.98;97305.53;9999535;29;20065;-90
2022/05/30 14:21:58;;;;;;;2.10;0.40;;;;;;;22.80;23.17;97305.78;9999717;29;20054;-91
2022/05/30 14:27:21;;;;;;;;;;;;;;;22.85;23.79;97315.09;10011673;29;20114;-78
2022/05/30 14:32:48;;;;;;;2.25;0.57;;;;;;;22.64;24.31;97310.53;10023346;29;19924;-78
2022/05/30 14:38:22;;;;;;;3.47;0.30;;;;;;;22.86;24.54;97316.53;9985421;29;20062;-78
2022/05/30 14:43:46;;;;;;;1.17;0.40;;;;;;;23.17;24.64;97322.59;9998603;29;20054;-78
2022/05/30 14:49:16;;;;;;;2.55;0.50;;;;;;;23.14;24.68;97324.69;10022382;29;20058;-78
2022/05/30 14:54:46;;;;;;;1.58;0.20;;;;;;;22.53;24.81;97316.09;10022158;29;20078;-78
2022/05/30 15:00:37;;;;;;;1.35;0.30;;;;;;;22.30;25.22;97317.19;9999480;29;20054;-90
2022/05/30 15:05:59;;;;;;;5.25;0.40;;;;;;;21.99;25.52;97327.31;10022433;29;20140;-88
2022/05/30 15:11:24;;;;;;;2.05;0.40;;;;;;;21.88;25.76;97328.56;9996378;29;20062;-89
2022/05/30 15:16:47;;;;;;;3.85;0.70;;;;;;;21.77;26.35;97336.19;9996772;29;20060;-88
2022/05/30 15:22:10;;;;;;;0.60;0.30;;;;;;;21.73;26.13;97338.28;10008942;29;20062;-89
2022/05/30 15:27:31;;;;;;;2.33;0.93;;;;;;;21.52;26.27;97354.19;10008826;29;20071;-85
2022/05/30 15:32:52;;;;;;;4.18;0.45;;;;;;;21.33;27.15;97359.56;10020133;29;20724;-86
2022/05/30 15:38:13;;;;;;;1.52;0.30;;;;;;;20.89;27.86;97389.84;10020465;29;20114;-85
2022/05/30 15:43:52;;;;;;;2.78;0.30;;;;;;;20.63;28.54;97396.38;10022147;29;20121;-86
2022/05/30 15:49:16;;;;;;;2.67;0.25;;;;;;;20.34;29.29;97402.75;9982121;29;20413;-82
2022/05/30 16:00:25;;;;;;;1.95;0.20;;;;;;;19.66;31.27;97395.41;10012318;29;20080;-81
2022/05/30 16:05:46;;;;;;;0.75;0.35;;;;;;;19.36;31.25;97412.25;10007329;29;20057;-80
2022/05/30 16:11:10;;;;;;;1.00;0.20;;;;;;;19.12;31.79;97411.59;10007153;29;20061;-88
2022/05/30 16:16:31;;;;;;;2.10;0.20;;;;;;;18.45;32.51;97420.84;9995322;29;20058;-87
2022/05/30 16:21:55;;;;;;;0.52;0.20;;;;;;;17.77;34.36;97414.38;10002704;29;20058;-85
2022/05/30 16:27:16;;;;;;;0.65;0.20;;;;;;;17.32;36.15;97424.78;10014749;29;20065;-89
2022/05/30 16:32:37;;;;;;;0.50;0.20;;;;;;;17.00;35.72;97432.78;10001725;29;20057;-85
2022/05/30 16:37:57;;;;;;;0.75;0.20;;;;;;;17.16;36.14;97429.84;10026614;29;20054;-84
2022/05/30 16:43:18;;;;;;;1.05;0.28;;;;;;;17.25;36.41;97431.59;9988772;29;20070;-88
2022/05/30 16:48:40;;;;;;;1.35;0.17;;;;;;;17.20;36.72;97430.00;9988215;29;20065;-87
2022/05/30 16:54:04;;;;;;;1.73;0.60;;;;;;;16.92;38.12;97446.59;10001113;29;20386;-85
2022/05/30 16:59:25;;;;;;;2.90;0.40;;;;;;;16.68;37.52;97446.34;10013643;29;20493;-80
2022/05/30 17:04:46;;;;;;;1.52;0.40;;;;;;;16.59;38.11;97459.38;9975319;29;20508;-77
2022/05/30 17:10:08;;;;;;;1.65;0.28;;;;;;;16.55;39.12;97455.69;10012781;29;20057;-77
2022/05/30 17:15:28;;;;;;;0.47;0.22;;;;;;;16.45;38.96;97463.75;10012515;29;20054;-76
2022/05/30 17:20:50;;;;;;;0.77;0.30;;;;;;;16.39;39.30;97463.47;9999983;29;20054;-78
2022/05/30 17:26:13;;;;;;;1.42;0.30;;;;;;;16.29;39.08;97470.16;10024930;29;20050;-85
2022/05/30 17:31:36;;;;;;;1.17;0.50;;;;;;;16.37;39.49;97471.84;9999296;29;20058;-80
2022/05/30 17:36:59;;;;;;;1.65;0.32;;;;;;;16.20;39.43;97476.09;9999678;29;20062;-82
2022/05/30 17:42:21;;;;;;;3.45;0.40;;;;;;;16.07;39.86;97471.34;9987575;29;20054;-83
2022/05/30 17:47:48;;;;;;;1.13;0.40;;;;;;;15.83;40.64;97471.06;10002824;29;20069;-85
2022/05/30 17:53:28;;;;;;;1.38;0.60;;;;;;;15.68;40.59;97481.69;10072004;24;20118;-80
2022/05/30 17:59:17;;;;;;;1.65;0.30;;;;;;;15.56;40.53;97480.41;10028680;29;20115;-82
2022/05/30 18:04:57;;;;;;;0.98;0.30;;;;;;;15.38;40.71;97489.47;10105269;24;20061;-78
2022/05/30 18:10:25;;;;;;;2.42;0.30;;;;;;;15.33;41.04;97489.94;10042257;29;20095;-79
2022/05/30 18:22:28;;;;;;;0.75;0.25;;;;;;;15.11;41.30;97498.81;10818667;24;20041;-83
2022/05/30 18:28:07;;;;;;;1.08;0.30;;;;;;;15.03;41.32;97504.06;10912709;24;20125;-83
2022/05/30 18:33:52;;;;;;;1.20;0.32;;;;;;;14.98;42.09;97512.94;10147520;24;20072;-79
2022/05/30 19:30:41;;;;;;;2.22;1.00;;;;;;;14.34;44.45;97596.22;10575391;24;20564;-76
2022/05/30 19:36:03;;;;;;;2.33;0.90;;;;;;;14.28;44.84;97605.06;10061006;29;20054;-77
2022/05/30 19:41:24;;;;;;;3.17;1.80;;;;;;;14.20;45.22;97615.88;10053798;29;20061;-77
2022/05/30 19:46:50;;;;;;;1.92;0.80;;;;;;;14.16;46.18;97615.66;10040226;29;20061;-78
2022/05/30 19:52:24;;;;;;;2.20;1.02;;;;;;;14.14;47.23;97612.03;10043558;29;20063;-78
2022/05/30 19:57:46;;;;;;;1.80;1.10;;;;;;;14.16;46.42;97620.56;10050774;29;20053;-76
2022/05/30 20:03:06;;;;;;;3.60;0.90;;;;;;;14.16;46.82;97623.34;10047465;29;20086;-76
2022/05/30 20:08:28;;;;;;;4.88;1.30;;;;;;;14.04;47.06;97629.81;10070403;29;20065;-76
2022/05/30 20:13:48;;;;;;;2.72;1.30;;;;;;;13.93;47.10;97627.81;10070586;29;20049;-76
2022/05/30 20:19:16;;;;;;;2.55;1.20;;;;;;;13.78;47.70;97631.22;10075642;29;20045;-76
2022/05/30 20:24:45;;;;;;;3.92;1.63;;;;;;;13.68;49.11;97636.28;10059828;29;20083;-77
2022/05/30 20:30:07;;;;;;;2.13;1.15;;;;;;;13.56;48.69;97638.44;10085870;29;20060;-77
2022/05/30 20:35:29;;;;;;;2.50;1.50;;;;;;;13.50;49.06;97638.84;10067803;29;20397;-77
2022/05/30 20:46:30;;;;;;;2.40;1.20;;;;;;;13.23;50.10;97656.31;10084302;29;20052;-77
2022/05/30 20:51:57;;;;;;;4.03;1.40;;;;;;;13.05;50.66;97669.25;10077789;29;20076;-77
2022/05/30 20:57:17;;;;;;;3.08;1.65;;;;;;;12.92;51.10;97669.91;10054593;29;20079;-76
2022/05/30 21:02:38;;;;;;;3.63;1.90;;;;;;;12.78;51.47;97667.75;10053119;29;20053;-77
2022/05/30 21:07:59;;;;;;;3.80;1.83;;;;;;;12.66;52.60;97674.72;10059469;29;20398;-76
2022/05/30 21:13:20;;;;;;;4.38;2.78;;;;;;;12.66;52.39;97677.53;10060294;29;20089;-76
2022/05/30 21:18:51;;;;;;;3.38;1.90;;;;;;;12.70;52.70;97681.28;10061638;29;20065;-76
2022/05/30 21:24:13;;;;;;;8.25;2.10;;;;;;;12.62;52.72;97678.00;10054398;29;20095;-76
2022/05/30 21:29:33;;;;;;;3.47;2.08;;;;;;;12.64;53.13;97688.59;10059452;29;20057;-76
2022/05/30 21:34:57;;;;;;;4.00;1.90;;;;;;;12.68;53.32;97694.44;10071137;29;20058;-77
2022/05/30 21:40:20;;;;;;;5.35;2.40;;;;;;;12.61;53.67;97687.75;10058426;29;20056;-77
2022/05/30 21:45:42;;;;;;;7.28;4.85;;;;;;;12.52;54.04;97692.13;10058364;29;20058;-77
2022/05/30 21:51:03;;;;;;;5.43;4.22;;;;;;;12.47;54.51;97693.25;10071169;29;20058;-76
2022/05/30 21:56:29;;;;;;;5.82;3.53;;;;;;;12.45;54.67;97697.97;10045120;29;20060;-76
2022/05/30 22:01:54;;;;;;;4.05;2.97;;;;;;;12.45;54.66;97700.78;10046608;29;20105;-76
2022/05/30 22:07:15;;;;;;;4.25;3.13;;;;;;;12.48;54.76;97702.38;10057829;29;20390;-77
2022/05/30 22:12:39;;;;;;;5.25;2.88;;;;;;;12.50;54.97;97691.31;10044837;29;20053;-76
2022/05/30 22:18:01;;;;;;;4.63;2.70;;;;;;;12.50;55.07;97694.09;10069897;29;20058;-77
2022/05/30 22:23:23;;;;;;;5.03;2.88;;;;;;;12.43;55.36;97704.19;10057180;29;20057;-76
2022/05/30 22:28:46;;;;;;;4.70;2.38;;;;;;;12.28;55.42;97705.44;10057155;29;20061;-77
2022/05/30 22:34:07;;;;;;;3.25;2.10;;;;;;;12.11;55.97;97703.00;10043809;29;20058;-77
2022/05/30 22:39:28;;;;;;;3.67;1.90;;;;;;;12.12;55.92;97715.63;10056826;29;20110;-77
2022/05/30 22:44:48;;;;;;;4.07;1.92;;;;;;;12.16;56.19;97710.31;10055849;29;20052;-76
2022/05/30 22:50:14;;;;;;;3.00;1.50;;;;;;;12.20;56.10;97710.53;10044322;29;20061;-76
2022/05/30 22:55:36;;;;;;;6.05;3.20;;;;;;;12.21;56.49;97711.25;10056662;29;20065;-76
2022/05/30 23:00:56;;;;;;;1.98;1.48;;;;;;;12.09;56.57;97716.13;10043332;29;20058;-77
2022/05/30 23:06:18;;;;;;;3.13;1.67;;;;;;;11.97;56.65;97716.84;10042726;29;20515;-76
2022/05/30 23:11:39;;;;;;;2.58;1.65;;;;;;;11.82;57.26;97717.31;10043116;29;20073;-77
2022/05/30 23:17:06;;;;;;;2.42;1.60;;;;;;;11.68;57.12;97711.53;10068177;29;20054;-76
2022/05/30 23:22:27;;;;;;;2.42;1.50;;;;;;;11.61;57.59;97720.88;10055279;29;20054;-76
2022/05/30 23:28:00;;;;;;;3.80;1.63;;;;;;;11.59;57.63;97715.16;10041629;29;20116;-76
2022/05/30 23:33:21;;;;;;;3.15;1.63;;;;;;;11.53;57.81;97716.84;10056177;29;20393;-76
2022/05/30 23:38:42;;;;;;;2.70;1.60;;;;;;;11.38;58.20;97717.97;10054251;29;20082;-76
2022/05/30 23:49:55;;;;;;;3.85;1.67;;;;;;;11.10;58.70;97708.53;10055538;29;20572;-76
2022/05/30 23:55:16;;;;;;;2.17;1.50;;;;;;;11.04;59.08;97705.34;10041490;29;20050;-77
